Time;durP1;ratioP1;P1;durP2;ratioP2;P2;SDS_P1;SDS_P2;PMS_P1;PMS_P2;Temp;Humidity;BMP_temperature;BMP_pressure;BME280_temperature;BME280_humidity;BME280_pressure;Samples;Min_cycle;Max_cycle;Signal;HPM_P1;HPM_P2
2023/01/03 00:01:42;;;;;;;23.50;16.63;;;;;;;;;;5056253;28;20659;-67
2023/01/03 00:04:09;;;;;;;25.83;18.65;;;;;;;;;;5056290;28;20218;-67
2023/01/03 00:06:37;;;;;;;32.65;18.85;;;;;;;;;;5056312;28;20674;-66
2023/01/03 00:09:08;;;;;;;22.52;17.08;;;;;;;;;;5055926;28;20191;-66
2023/01/03 00:14:23;;;;;;;30.13;19.45;;;;;;;;;;5056016;28;20174;-69
2023/01/03 00:16:51;;;;;;;33.63;21.15;;;;;;;;;;5056464;28;20199;-67
2023/01/03 00:19:18;;;;;;;30.92;20.02;;;;;;;;;;5055995;28;20199;-67
2023/01/03 00:21:46;;;;;;;26.98;17.33;;;;;;;;;;5056206;28;20202;-66
2023/01/03 00:24:13;;;;;;;25.70;16.48;;;;;;;;;;5055891;28;20219;-67
2023/01/03 00:26:41;;;;;;;28.83;18.77;;;;;;;;;;5056044;28;20195;-66
2023/01/03 00:29:08;;;;;;;25.93;19.03;;;;;;;;;;5055803;28;20225;-66
2023/01/03 00:31:37;;;;;;;29.85;18.90;;;;;;;;;;5055964;28;20472;-66
2023/01/03 00:34:04;;;;;;;29.98;19.60;;;;;;;;;;5055533;28;20554;-66
2023/01/03 00:36:32;;;;;;;32.10;21.65;;;;;;;;;;5056022;28;20195;-66
2023/01/03 00:38:59;;;;;;;29.15;17.38;;;;;;;;;;5055559;28;20202;-66
2023/01/03 00:41:26;;;;;;;29.15;19.45;;;;;;;;;;5055426;28;20223;-66
2023/01/03 00:43:54;;;;;;;29.02;18.55;;;;;;;;;;5055856;28;20194;-66
2023/01/03 00:46:22;;;;;;;30.45;18.20;;;;;;;;;;5055711;28;20198;-66
2023/01/03 00:48:50;;;;;;;26.67;18.17;;;;;;;;;;5055660;28;20198;-66
2023/01/03 00:51:18;;;;;;;25.65;16.75;;;;;;;;;;5055556;28;20201;-66
2023/01/03 00:53:46;;;;;;;32.88;18.70;;;;;;;;;;5055502;28;20198;-66
2023/01/03 00:56:14;;;;;;;32.45;19.60;;;;;;;;;;5055608;28;20551;-66
2023/01/03 00:58:42;;;;;;;31.58;18.77;;;;;;;;;;5055454;28;20195;-66
2023/01/03 01:01:10;;;;;;;26.88;18.67;;;;;;;;;;5055158;28;20201;-66
2023/01/03 01:03:38;;;;;;;32.05;18.17;;;;;;;;;;5055299;28;20293;-66
2023/01/03 01:06:12;;;;;;;33.33;18.67;;;;;;;;;;5055413;28;20306;-66
2023/01/03 01:08:40;;;;;;;31.58;19.30;;;;;;;;;;5055676;28;20194;-66
2023/01/03 01:11:07;;;;;;;32.13;18.15;;;;;;;;;;5055297;28;20234;-66
2023/01/03 01:13:35;;;;;;;28.83;18.27;;;;;;;;;;5055185;28;20309;-66
2023/01/03 01:16:02;;;;;;;27.15;19.05;;;;;;;;;;5055287;28;20206;-66
2023/01/03 01:18:30;;;;;;;28.92;17.98;;;;;;;;;;5054685;28;20203;-66
2023/01/03 01:20:57;;;;;;;32.35;18.00;;;;;;;;;;5054749;28;20206;-66
2023/01/03 01:23:26;;;;;;;27.58;18.17;;;;;;;;;;5054942;28;20195;-67
2023/01/03 01:25:53;;;;;;;29.52;18.67;;;;;;;;;;5054815;28;20222;-66
2023/01/03 01:28:20;;;;;;;31.45;18.50;;;;;;;;;;5054967;28;20191;-67
2023/01/03 01:30:47;;;;;;;26.95;18.08;;;;;;;;;;5054798;28;20199;-66
2023/01/03 01:33:14;;;;;;;25.88;17.95;;;;;;;;;;5054537;28;20209;-66
2023/01/03 01:35:41;;;;;;;27.50;17.20;;;;;;;;;;5054335;28;20206;-67
2023/01/03 01:38:09;;;;;;;30.52;19.50;;;;;;;;;;5055316;28;20202;-66
2023/01/03 01:40:37;;;;;;;25.70;18.08;;;;;;;;;;5054825;28;20197;-66
2023/01/03 01:45:57;;;;;;;28.48;18.95;;;;;;;;;;5053793;28;20249;-66
2023/01/03 01:48:24;;;;;;;29.15;18.30;;;;;;;;;;5055265;28;20636;-66
2023/01/03 01:50:54;;;;;;;26.88;18.83;;;;;;;;;;5054612;28;20217;-66
2023/01/03 01:53:24;;;;;;;25.92;18.08;;;;;;;;;;5054562;28;20194;-66
2023/01/03 01:55:55;;;;;;;26.42;16.85;;;;;;;;;;5054724;28;20283;-66
2023/01/03 01:58:24;;;;;;;23.00;16.80;;;;;;;;;;5054373;28;20191;-66
2023/01/03 02:00:51;;;;;;;24.17;15.30;;;;;;;;;;5054145;28;20289;-66
2023/01/03 02:03:18;;;;;;;22.40;14.93;;;;;;;;;;5053926;28;20205;-66
2023/01/03 02:05:48;;;;;;;23.05;15.82;;;;;;;;;;5053740;28;20699;-66
2023/01/03 02:08:15;;;;;;;25.50;15.32;;;;;;;;;;5054059;28;20283;-66
2023/01/03 02:10:52;;;;;;;21.13;13.68;;;;;;;;;;5054064;28;20228;-66
2023/01/03 02:13:24;;;;;;;26.40;15.93;;;;;;;;;;5054096;28;20193;-66
2023/01/03 02:15:59;;;;;;;27.58;14.93;;;;;;;;;;5053666;28;20645;-66
2023/01/03 02:18:32;;;;;;;22.00;16.77;;;;;;;;;;5054379;28;20186;-66
2023/01/03 02:21:10;;;;;;;26.75;16.75;;;;;;;;;;5054107;28;20632;-66
2023/01/03 02:23:56;;;;;;;26.17;16.63;;;;;;;;;;5054260;28;20618;-66
2023/01/03 02:26:44;;;;;;;24.23;15.65;;;;;;;;;;5053778;28;20583;-66
2023/01/03 02:29:19;;;;;;;29.08;17.63;;;;;;;;;;5048003;28;20208;-66
2023/01/03 02:31:51;;;;;;;25.55;17.85;;;;;;;;;;5053591;28;20636;-66
2023/01/03 02:34:20;;;;;;;28.48;20.08;;;;;;;;;;5054071;28;20205;-67
2023/01/03 02:36:52;;;;;;;28.95;17.73;;;;;;;;;;5053384;28;20206;-66
2023/01/03 02:39:24;;;;;;;25.38;17.50;;;;;;;;;;5053281;28;20198;-66
2023/01/03 02:42:56;;;;;;;28.00;19.58;;;;;;;;;;5053941;28;20180;-66
2023/01/03 02:44:45;;;;;;;34.88;19.10;;;;;;;;;;5053364;28;20683;-66
2023/01/03 02:47:14;;;;;;;27.55;20.00;;;;;;;;;;5053999;28;20193;-66
2023/01/03 02:49:43;;;;;;;26.70;19.77;;;;;;;;;;5053142;28;20191;-66
2023/01/03 02:52:12;;;;;;;31.92;20.15;;;;;;;;;;5053483;28;20195;-66
2023/01/03 02:54:42;;;;;;;27.70;19.05;;;;;;;;;;5053069;28;20264;-66
2023/01/03 02:57:11;;;;;;;28.52;19.17;;;;;;;;;;5053258;28;20195;-66
2023/01/03 02:59:42;;;;;;;30.17;19.45;;;;;;;;;;5053499;28;20198;-66
2023/01/03 03:02:11;;;;;;;31.27;20.70;;;;;;;;;;5053757;28;20190;-66
2023/01/03 03:04:40;;;;;;;31.52;18.98;;;;;;;;;;5053011;28;20677;-66
2023/01/03 03:07:08;;;;;;;32.20;21.83;;;;;;;;;;5053308;28;20205;-66
2023/01/03 03:13:11;;;;;;;27.58;19.45;;;;;;;;;;5053581;28;20198;-66
2023/01/03 03:15:11;;;;;;;34.63;20.83;;;;;;;;;;5053022;28;20185;-66
2023/01/03 03:17:39;;;;;;;30.92;19.15;;;;;;;;;;5053321;28;20229;-66
2023/01/03 03:25:46;;;;;;;37.03;21.02;;;;;;;;;;5053152;28;20268;-66
2023/01/03 03:31:02;;;;;;;34.75;21.15;;;;;;;;;;5052950;28;20643;-66
2023/01/03 03:33:31;;;;;;;38.42;22.10;;;;;;;;;;5053092;28;20290;-66
2023/01/03 03:36:03;;;;;;;32.75;20.70;;;;;;;;;;5052941;28;20206;-66
2023/01/03 03:38:32;;;;;;;38.33;22.52;;;;;;;;;;5053146;28;20229;-66
2023/01/03 03:46:40;;;;;;;37.22;20.63;;;;;;;;;;5052645;28;20216;-66
2023/01/03 03:51:56;;;;;;;31.13;21.35;;;;;;;;;;5052758;28;20313;-66
2023/01/03 03:54:25;;;;;;;30.92;19.17;;;;;;;;;;5052684;28;20629;-66
2023/01/03 03:56:56;;;;;;;30.60;21.20;;;;;;;;;;5052814;28;20195;-66
2023/01/03 03:59:24;;;;;;;34.63;21.45;;;;;;;;;;5053524;28;20274;-66
2023/01/03 04:01:51;;;;;;;32.42;21.85;;;;;;;;;;5052942;28;20252;-66
2023/01/03 04:04:21;;;;;;;36.95;21.45;;;;;;;;;;5052468;28;20672;-66
2023/01/03 04:06:50;;;;;;;33.03;20.80;;;;;;;;;;5052297;28;20664;-66
2023/01/03 04:09:18;;;;;;;30.08;21.02;;;;;;;;;;5056453;28;20322;-65
2023/01/03 04:11:45;;;;;;;35.10;23.58;;;;;;;;;;5056534;28;20234;-66
2023/01/03 04:14:14;;;;;;;39.83;22.75;;;;;;;;;;5056374;28;20213;-65
2023/01/03 04:16:41;;;;;;;39.65;22.90;;;;;;;;;;5056140;28;20253;-66
2023/01/03 04:19:08;;;;;;;32.90;22.92;;;;;;;;;;5055940;28;20211;-66
2023/01/03 04:21:36;;;;;;;35.65;23.40;;;;;;;;;;5056438;28;20194;-66
2023/01/03 04:24:03;;;;;;;36.35;22.50;;;;;;;;;;5056454;28;20202;-65
2023/01/03 04:26:31;;;;;;;37.90;23.08;;;;;;;;;;5055616;28;20219;-66
2023/01/03 04:28:59;;;;;;;34.28;21.30;;;;;;;;;;5055693;28;20231;-66
2023/01/03 04:31:26;;;;;;;44.75;24.50;;;;;;;;;;5056575;28;20559;-66
2023/01/03 04:33:53;;;;;;;40.40;24.65;;;;;;;;;;5056004;28;20204;-63
2023/01/03 04:36:20;;;;;;;35.40;22.13;;;;;;;;;;5055604;28;20192;-64
2023/01/03 04:38:48;;;;;;;39.78;26.20;;;;;;;;;;5055529;28;20199;-65
2023/01/03 04:41:15;;;;;;;36.65;22.60;;;;;;;;;;5055394;28;20195;-67
2023/01/03 04:44:01;;;;;;;35.75;20.75;;;;;;;;;;5055516;28;20289;-65
2023/01/03 04:46:28;;;;;;;43.35;23.52;;;;;;;;;;5056284;28;20721;-66
2023/01/03 04:48:55;;;;;;;38.92;23.98;;;;;;;;;;5055826;28;20558;-66
2023/01/03 04:51:23;;;;;;;43.10;24.52;;;;;;;;;;5055729;28;20201;-67
2023/01/03 04:53:50;;;;;;;44.45;24.92;;;;;;;;;;5055351;28;20205;-65
2023/01/03 04:56:17;;;;;;;40.00;23.90;;;;;;;;;;5055603;28;20228;-64
2023/01/03 04:58:46;;;;;;;38.30;25.15;;;;;;;;;;5039471;28;20205;-64
2023/01/03 05:01:13;;;;;;;50.58;24.48;;;;;;;;;;5034893;28;20199;-64
2023/01/03 05:03:41;;;;;;;33.17;22.60;;;;;;;;;;5035296;28;20198;-64
2023/01/03 05:06:10;;;;;;;39.55;24.60;;;;;;;;;;5035292;28;20244;-64
2023/01/03 05:08:38;;;;;;;38.65;21.88;;;;;;;;;;5035061;28;20196;-64
2023/01/03 05:11:06;;;;;;;40.55;24.48;;;;;;;;;;5034758;28;20234;-64
2023/01/03 05:13:33;;;;;;;37.03;25.17;;;;;;;;;;5035137;28;20199;-64
2023/01/03 05:16:05;;;;;;;41.67;22.83;;;;;;;;;;5035099;28;20655;-64
2023/01/03 05:18:33;;;;;;;37.22;23.65;;;;;;;;;;5035084;28;20194;-64
2023/01/03 05:26:34;;;;;;;34.50;21.83;;;;;;;;;;5034761;28;20205;-64
2023/01/03 05:29:01;;;;;;;34.70;22.65;;;;;;;;;;5034628;28;20194;-63
2023/01/03 05:31:30;;;;;;;39.28;23.25;;;;;;;;;;5034705;28;20198;-64
2023/01/03 05:33:58;;;;;;;40.80;24.95;;;;;;;;;;5034416;28;20204;-64
2023/01/03 05:36:25;;;;;;;39.10;23.20;;;;;;;;;;5034792;28;20237;-63
2023/01/03 05:38:52;;;;;;;40.85;24.00;;;;;;;;;;5034714;28;20194;-64
2023/01/03 05:41:58;;;;;;;41.75;24.52;;;;;;;;;;5034188;28;20194;-63
2023/01/03 05:44:07;;;;;;;41.33;24.17;;;;;;;;;;5034041;28;20676;-63
2023/01/03 05:46:35;;;;;;;41.25;25.10;;;;;;;;;;5034511;28;20218;-63
2023/01/03 05:49:02;;;;;;;49.47;25.38;;;;;;;;;;5034534;28;20199;-63
2023/01/03 05:51:30;;;;;;;39.75;24.75;;;;;;;;;;5034069;28;20210;-64
2023/01/03 05:53:57;;;;;;;37.65;23.15;;;;;;;;;;5034247;28;20303;-64
2023/01/03 05:56:24;;;;;;;39.25;24.48;;;;;;;;;;5034323;28;20199;-64
2023/01/03 05:58:51;;;;;;;44.28;24.08;;;;;;;;;;5033815;28;20202;-64
2023/01/03 06:01:19;;;;;;;41.33;24.00;;;;;;;;;;5034264;28;20198;-64
2023/01/03 06:03:48;;;;;;;39.92;24.65;;;;;;;;;;5033813;28;20199;-64
2023/01/03 06:06:16;;;;;;;35.88;24.08;;;;;;;;;;5033806;28;20217;-64
2023/01/03 06:08:43;;;;;;;44.30;23.60;;;;;;;;;;5034177;28;20198;-64
2023/01/03 06:11:11;;;;;;;35.65;23.40;;;;;;;;;;5033715;28;20234;-64
2023/01/03 06:13:38;;;;;;;40.53;24.30;;;;;;;;;;5033914;28;20201;-64
2023/01/03 06:18:53;;;;;;;32.47;23.33;;;;;;;;;;5033853;28;20186;-64
2023/01/03 06:21:20;;;;;;;38.53;25.48;;;;;;;;;;5033902;28;20199;-64
2023/01/03 06:23:47;;;;;;;45.58;26.10;;;;;;;;;;5034445;28;20198;-64
2023/01/03 06:26:15;;;;;;;39.20;25.63;;;;;;;;;;5033492;28;20696;-64
2023/01/03 06:28:42;;;;;;;46.83;26.08;;;;;;;;;;5033288;28;20617;-64
2023/01/03 06:31:09;;;;;;;42.10;27.27;;;;;;;;;;5033289;28;20203;-64
2023/01/03 06:33:37;;;;;;;43.17;26.67;;;;;;;;;;5033183;28;20670;-64
2023/01/03 06:36:06;;;;;;;49.08;26.35;;;;;;;;;;5033867;28;20290;-64
2023/01/03 06:38:33;;;;;;;38.80;25.98;;;;;;;;;;5033370;28;20633;-65
2023/01/03 06:41:01;;;;;;;48.15;26.65;;;;;;;;;;5033538;28;20669;-65
2023/01/03 06:43:28;;;;;;;49.50;29.02;;;;;;;;;;5033678;28;20204;-65
2023/01/03 06:54:15;;;;;;;54.72;28.55;;;;;;;;;;5033205;28;20183;-65
2023/01/03 06:56:48;;;;;;;52.25;32.85;;;;;;;;;;5033339;28;20290;-65
2023/01/03 06:59:15;;;;;;;49.92;29.95;;;;;;;;;;5033211;28;20198;-66
2023/01/03 07:01:43;;;;;;;53.58;31.25;;;;;;;;;;5033042;28;20195;-65
2023/01/03 07:04:10;;;;;;;50.75;31.77;;;;;;;;;;5033278;28;20199;-65
2023/01/03 07:06:39;;;;;;;54.22;28.90;;;;;;;;;;5032877;28;20254;-64
2023/01/03 07:09:06;;;;;;;46.97;29.25;;;;;;;;;;5032721;28;20716;-66
2023/01/03 07:11:34;;;;;;;53.00;30.80;;;;;;;;;;5048893;28;20528;-65
2023/01/03 07:14:02;;;;;;;49.63;31.35;;;;;;;;;;5052787;28;20194;-65
2023/01/03 07:16:30;;;;;;;53.28;31.20;;;;;;;;;;5053146;28;20212;-65
2023/01/03 07:18:58;;;;;;;48.85;29.27;;;;;;;;;;5052776;28;20233;-65
2023/01/03 07:21:26;;;;;;;49.17;28.63;;;;;;;;;;5052726;28;20734;-65
2023/01/03 07:23:55;;;;;;;47.90;29.88;;;;;;;;;;5053589;28;20198;-65
2023/01/03 07:26:24;;;;;;;42.95;25.40;;;;;;;;;;5052990;28;20215;-65
2023/01/03 07:28:51;;;;;;;52.13;28.20;;;;;;;;;;5036865;28;20200;-65
2023/01/03 07:31:18;;;;;;;50.08;26.52;;;;;;;;;;5032994;28;20301;-65
2023/01/03 07:33:45;;;;;;;47.20;26.70;;;;;;;;;;5032785;28;20680;-65
2023/01/03 07:36:14;;;;;;;41.55;25.55;;;;;;;;;;5032952;28;20210;-65
2023/01/03 07:38:42;;;;;;;43.63;26.30;;;;;;;;;;5033283;28;20202;-65
2023/01/03 07:41:11;;;;;;;60.50;25.27;;;;;;;;;;5032456;28;20293;-65
2023/01/03 07:43:38;;;;;;;41.63;25.30;;;;;;;;;;5035285;28;20195;-65
2023/01/03 07:46:06;;;;;;;46.10;23.80;;;;;;;;;;5036322;28;20692;-65
2023/01/03 07:48:34;;;;;;;48.63;26.77;;;;;;;;;;5036802;28;20195;-65
2023/01/03 07:51:01;;;;;;;47.20;26.90;;;;;;;;;;5036616;28;20210;-65
2023/01/03 07:53:29;;;;;;;45.67;25.17;;;;;;;;;;5036542;28;20198;-65
2023/01/03 07:56:02;;;;;;;48.60;24.77;;;;;;;;;;5036488;28;20199;-63
2023/01/03 07:58:31;;;;;;;44.65;25.98;;;;;;;;;;5036059;28;20198;-63
2023/01/03 08:01:03;;;;;;;39.80;25.95;;;;;;;;;;5036412;28;20233;-64
2023/01/03 08:03:30;;;;;;;43.33;24.23;;;;;;;;;;5036232;28;20659;-64
2023/01/03 08:06:00;;;;;;;41.70;24.27;;;;;;;;;;5036065;28;20203;-64
2023/01/03 08:08:27;;;;;;;53.42;25.20;;;;;;;;;;5036549;28;20194;-70
2023/01/03 08:13:40;;;;;;;41.17;23.67;;;;;;;;;;5036190;28;20618;-64
2023/01/03 08:16:10;;;;;;;37.28;23.77;;;;;;;;;;5036131;28;20295;-64
2023/01/03 08:18:37;;;;;;;43.08;24.27;;;;;;;;;;5036061;28;20202;-64
2023/01/03 08:21:05;;;;;;;52.85;28.02;;;;;;;;;;5035686;28;20660;-64
2023/01/03 08:23:32;;;;;;;47.13;26.60;;;;;;;;;;5036181;28;20234;-64
2023/01/03 08:26:02;;;;;;;50.97;27.73;;;;;;;;;;5036054;28;20202;-64
2023/01/03 08:28:29;;;;;;;40.67;24.55;;;;;;;;;;5036132;28;20199;-64
2023/01/03 08:30:58;;;;;;;38.88;24.13;;;;;;;;;;5035914;28;20202;-64
2023/01/03 08:33:26;;;;;;;44.22;26.10;;;;;;;;;;5036829;28;20201;-64
2023/01/03 08:35:56;;;;;;;40.47;25.25;;;;;;;;;;5035648;28;20215;-64
2023/01/03 08:38:25;;;;;;;41.80;26.08;;;;;;;;;;5035884;28;20209;-64
2023/01/03 08:40:53;;;;;;;41.25;24.40;;;;;;;;;;5036039;28;20298;-64
2023/01/03 08:43:21;;;;;;;46.13;26.02;;;;;;;;;;5035478;28;20198;-64
2023/01/03 08:45:48;;;;;;;47.90;25.20;;;;;;;;;;5035395;28;20224;-64
2023/01/03 08:48:20;;;;;;;39.35;24.05;;;;;;;;;;5035702;28;20223;-64
2023/01/03 08:50:47;;;;;;;48.13;24.63;;;;;;;;;;5035901;28;20194;-64
2023/01/03 08:53:14;;;;;;;42.30;25.40;;;;;;;;;;5034924;28;20286;-64
2023/01/03 08:55:42;;;;;;;49.53;25.63;;;;;;;;;;5035922;28;20546;-64
2023/01/03 08:58:10;;;;;;;39.78;24.23;;;;;;;;;;5035488;28;20269;-64
2023/01/03 09:00:37;;;;;;;43.90;23.55;;;;;;;;;;5035716;28;20282;-64
2023/01/03 09:03:04;;;;;;;43.40;23.17;;;;;;;;;;5036090;28;20199;-64
2023/01/03 09:05:33;;;;;;;40.13;21.58;;;;;;;;;;5035363;28;20564;-64
2023/01/03 09:08:00;;;;;;;44.25;24.95;;;;;;;;;;5035256;28;20580;-64
2023/01/03 09:10:27;;;;;;;49.53;24.95;;;;;;;;;;5034922;28;20228;-64
2023/01/03 09:12:55;;;;;;;49.40;24.52;;;;;;;;;;5035613;28;20203;-64
2023/01/03 09:15:22;;;;;;;47.33;26.08;;;;;;;;;;5034746;28;20198;-64
2023/01/03 09:17:49;;;;;;;48.38;23.77;;;;;;;;;;5035118;28;20199;-64
2023/01/03 09:20:17;;;;;;;40.60;23.17;;;;;;;;;;5034841;28;20195;-64
2023/01/03 09:22:46;;;;;;;37.65;21.88;;;;;;;;;;5035010;28;20197;-64
2023/01/03 09:25:14;;;;;;;37.10;21.42;;;;;;;;;;5035064;28;20300;-64
2023/01/03 09:27:45;;;;;;;35.47;20.60;;;;;;;;;;5034864;28;20585;-64
2023/01/03 09:30:13;;;;;;;36.25;20.98;;;;;;;;;;5034653;28;20193;-64
2023/01/03 09:32:40;;;;;;;34.00;20.70;;;;;;;;;;5034794;28;20203;-64
2023/01/03 09:35:08;;;;;;;38.10;21.27;;;;;;;;;;5034818;28;20245;-64
2023/01/03 09:37:35;;;;;;;36.63;20.23;;;;;;;;;;5034675;28;20205;-64
2023/01/03 09:40:04;;;;;;;32.85;21.42;;;;;;;;;;5033819;28;20615;-65
2023/01/03 09:45:18;;;;;;;28.75;18.35;;;;;;;;;;5034385;28;20230;-64
2023/01/03 09:47:45;;;;;;;31.67;18.52;;;;;;;;;;5034016;28;20258;-64
2023/01/03 09:50:18;;;;;;;33.17;19.23;;;;;;;;;;5034080;28;20648;-64
2023/01/03 10:04:05;;;;;;;32.17;17.73;;;;;;;;;;5034262;28;20195;-64
2023/01/03 10:06:36;;;;;;;33.35;20.33;;;;;;;;;;5033124;28;20645;-64
2023/01/03 10:09:08;;;;;;;31.75;16.92;;;;;;;;;;5034588;28;20206;-64
2023/01/03 10:11:42;;;;;;;23.30;14.52;;;;;;;;;;5033673;28;20696;-64
2023/01/03 10:14:21;;;;;;;24.67;15.35;;;;;;;;;;5033648;28;20221;-64
2023/01/03 10:16:54;;;;;;;24.52;15.52;;;;;;;;;;5034367;28;20198;-64
2023/01/03 10:19:28;;;;;;;23.48;15.82;;;;;;;;;;5033906;28;20212;-64
2023/01/03 10:22:00;;;;;;;27.15;14.80;;;;;;;;;;5033963;28;20193;-64
2023/01/03 10:24:30;;;;;;;19.13;13.30;;;;;;;;;;5033623;28;20194;-64
2023/01/03 10:27:04;;;;;;;24.40;14.25;;;;;;;;;;5033318;28;20293;-64
2023/01/03 10:29:31;;;;;;;25.02;14.52;;;;;;;;;;5034101;28;20191;-64
2023/01/03 10:32:09;;;;;;;16.55;13.27;;;;;;;;;;5033186;28;20195;-64
2023/01/03 10:34:38;;;;;;;26.77;13.13;;;;;;;;;;5034438;28;20190;-64
2023/01/03 10:37:09;;;;;;;19.30;12.73;;;;;;;;;;5033510;28;20207;-65
2023/01/03 10:39:37;;;;;;;20.45;14.40;;;;;;;;;;5033612;28;20195;-64
2023/01/03 10:42:06;;;;;;;21.38;13.50;;;;;;;;;;5033134;28;20205;-65
2023/01/03 10:44:33;;;;;;;22.25;13.68;;;;;;;;;;5033607;28;20198;-64
2023/01/03 10:47:08;;;;;;;16.88;12.13;;;;;;;;;;5033228;28;20203;-64
2023/01/03 10:49:36;;;;;;;15.55;11.50;;;;;;;;;;5033533;28;20183;-65
2023/01/03 10:52:05;;;;;;;19.38;11.85;;;;;;;;;;5033331;28;20227;-65
2023/01/03 10:54:37;;;;;;;22.83;13.43;;;;;;;;;;5033066;28;20290;-65
2023/01/03 10:57:07;;;;;;;17.20;11.63;;;;;;;;;;5033516;28;20190;-64
2023/01/03 10:59:36;;;;;;;17.73;11.52;;;;;;;;;;5033130;28;20195;-64
2023/01/03 11:02:15;;;;;;;14.68;10.23;;;;;;;;;;5033278;28;20237;-65
2023/01/03 11:04:42;;;;;;;14.15;10.80;;;;;;;;;;5033568;28;20270;-65
2023/01/03 11:07:14;;;;;;;13.52;10.93;;;;;;;;;;5033473;28;20203;-65
2023/01/03 11:09:47;;;;;;;14.57;11.73;;;;;;;;;;5032920;28;20235;-65
2023/01/03 11:12:18;;;;;;;20.35;11.77;;;;;;;;;;5033420;28;20188;-64
2023/01/03 11:14:49;;;;;;;21.75;11.68;;;;;;;;;;5033656;28;20194;-65
2023/01/03 11:17:18;;;;;;;17.10;10.80;;;;;;;;;;5034782;28;20203;-65
2023/01/03 11:19:46;;;;;;;17.00;10.30;;;;;;;;;;5037201;28;20657;-65
2023/01/03 11:22:15;;;;;;;17.50;11.23;;;;;;;;;;5036922;28;20202;-65
2023/01/03 11:24:57;;;;;;;18.02;10.40;;;;;;;;;;5036825;28;20215;-65
2023/01/03 11:27:35;;;;;;;12.73;10.13;;;;;;;;;;5037134;28;20211;-65
2023/01/03 11:30:18;;;;;;;15.57;10.23;;;;;;;;;;5037336;28;20210;-65
2023/01/03 11:32:57;;;;;;;10.87;8.87;;;;;;;;;;5037276;28;20226;-64
2023/01/03 11:35:34;;;;;;;13.82;8.60;;;;;;;;;;5037499;28;20430;-65
2023/01/03 11:38:06;;;;;;;8.80;7.47;;;;;;;;;;5037040;28;20599;-65
2023/01/03 11:40:39;;;;;;;10.45;9.13;;;;;;;;;;5037958;28;20486;-65
2023/01/03 11:43:13;;;;;;;20.37;7.67;;;;;;;;;;5036651;28;20187;-65
2023/01/03 11:45:54;;;;;;;13.47;8.00;;;;;;;;;;5036975;28;20426;-65
2023/01/03 11:48:28;;;;;;;12.77;8.32;;;;;;;;;;5036788;28;20841;-65
2023/01/03 11:51:00;;;;;;;10.20;7.30;;;;;;;;;;5036891;28;20275;-65
2023/01/03 11:53:33;;;;;;;7.93;7.00;;;;;;;;;;5036459;28;20271;-65
2023/01/03 11:56:10;;;;;;;8.50;6.73;;;;;;;;;;5036821;28;20266;-65
2023/01/03 11:58:44;;;;;;;10.70;7.70;;;;;;;;;;5036707;28;20940;-65
2023/01/03 12:01:16;;;;;;;13.20;7.37;;;;;;;;;;5036983;28;20446;-66
2023/01/03 12:03:52;;;;;;;13.37;6.83;;;;;;;;;;5036855;28;20427;-65
2023/01/03 12:06:22;;;;;;;12.63;7.88;;;;;;;;;;5036690;28;20440;-65
2023/01/03 12:08:53;;;;;;;12.17;8.23;;;;;;;;;;5036695;28;20230;-65
2023/01/03 12:11:29;;;;;;;9.37;8.00;;;;;;;;;;5036703;28;20474;-65
2023/01/03 12:14:01;;;;;;;8.70;7.82;;;;;;;;;;5036665;28;20512;-65
2023/01/03 12:16:32;;;;;;;9.98;8.52;;;;;;;;;;5036672;28;20655;-65
2023/01/03 12:19:02;;;;;;;9.18;7.95;;;;;;;;;;5036643;28;20193;-66
2023/01/03 12:21:33;;;;;;;10.10;8.27;;;;;;;;;;5036009;28;20194;-66
2023/01/03 12:24:04;;;;;;;12.63;8.10;;;;;;;;;;5036587;28;20838;-65
2023/01/03 12:26:32;;;;;;;12.13;9.80;;;;;;;;;;5036103;28;20644;-65
2023/01/03 12:29:04;;;;;;;15.45;8.82;;;;;;;;;;5034927;28;20474;-67
2023/01/03 12:31:34;;;;;;;12.97;9.63;;;;;;;;;;5035920;28;20184;-65
2023/01/03 12:34:06;;;;;;;11.52;8.93;;;;;;;;;;5035695;28;20950;-65
2023/01/03 12:36:36;;;;;;;12.10;9.93;;;;;;;;;;5036401;28;20186;-65
2023/01/03 12:39:08;;;;;;;16.00;10.65;;;;;;;;;;5035914;28;20434;-65
2023/01/03 12:41:39;;;;;;;16.17;11.13;;;;;;;;;;5036437;28;20226;-65
2023/01/03 12:44:13;;;;;;;17.80;11.83;;;;;;;;;;5036174;28;20436;-65
2023/01/03 12:46:44;;;;;;;15.73;10.97;;;;;;;;;;5035655;28;20921;-66
2023/01/03 12:49:13;;;;;;;18.38;11.90;;;;;;;;;;5035964;28;20661;-65
2023/01/03 12:51:40;;;;;;;16.77;11.10;;;;;;;;;;5036041;28;20194;-66
2023/01/03 12:54:14;;;;;;;17.90;13.10;;;;;;;;;;5035721;28;20198;-65
2023/01/03 12:56:50;;;;;;;16.70;12.05;;;;;;;;;;5035479;28;20429;-65
2023/01/03 12:59:26;;;;;;;14.52;11.32;;;;;;;;;;5036010;28;20187;-65
2023/01/03 13:01:56;;;;;;;14.15;9.60;;;;;;;;;;5035987;28;20187;-65
2023/01/03 13:04:25;;;;;;;13.47;10.10;;;;;;;;;;5035600;28;20600;-66
2023/01/03 13:06:57;;;;;;;15.02;9.57;;;;;;;;;;5035546;28;20469;-65
2023/01/03 13:09:30;;;;;;;12.10;9.30;;;;;;;;;;5034963;28;20221;-66
2023/01/03 13:12:07;;;;;;;13.63;8.90;;;;;;;;;;5035033;28;20474;-66
2023/01/03 13:14:49;;;;;;;12.18;10.27;;;;;;;;;;5035046;28;20179;-66
2023/01/03 13:17:18;;;;;;;12.47;8.97;;;;;;;;;;5035105;28;20633;-66
2023/01/03 13:19:53;;;;;;;10.60;8.00;;;;;;;;;;5035149;28;20934;-66
2023/01/03 13:22:22;;;;;;;12.00;9.37;;;;;;;;;;5035205;28;20895;-65
2023/01/03 13:24:50;;;;;;;17.87;9.40;;;;;;;;;;5035053;28;20434;-66
2023/01/03 13:27:37;;;;;;;9.40;7.97;;;;;;;;;;5035152;28;20441;-65
2023/01/03 13:30:18;;;;;;;8.90;7.80;;;;;;;;;;5035226;28;20915;-66
2023/01/03 13:32:52;;;;;;;9.70;6.63;;;;;;;;;;5035317;28;20437;-66
2023/01/03 13:35:29;;;;;;;7.70;6.60;;;;;;;;;;5034921;28;20517;-66
2023/01/03 13:37:58;;;;;;;10.20;6.20;;;;;;;;;;5035055;28;20418;-65
2023/01/03 13:40:27;;;;;;;7.57;6.40;;;;;;;;;;5034265;28;20512;-66
2023/01/03 13:43:15;;;;;;;7.30;5.90;;;;;;;;;;5034890;28;20434;-65
2023/01/03 13:45:51;;;;;;;6.83;5.67;;;;;;;;;;5034729;28;20429;-66
2023/01/03 13:48:22;;;;;;;7.23;5.80;;;;;;;;;;5035231;28;20461;-66
2023/01/03 13:51:09;;;;;;;6.63;5.20;;;;;;;;;;5034721;28;20435;-66
2023/01/03 13:53:38;;;;;;;7.30;4.97;;;;;;;;;;5035127;28;20196;-66
2023/01/03 13:56:20;;;;;;;5.43;4.50;;;;;;;;;;5034530;28;20545;-66
2023/01/03 13:58:49;;;;;;;6.17;5.03;;;;;;;;;;5033190;28;20454;-66
2023/01/03 14:01:22;;;;;;;10.00;5.30;;;;;;;;;;5034518;28;20439;-66
2023/01/03 14:03:59;;;;;;;7.43;4.93;;;;;;;;;;5034606;28;20786;-65
2023/01/03 14:06:41;;;;;;;5.80;4.30;;;;;;;;;;5034447;28;20422;-65
2023/01/03 14:09:16;;;;;;;8.47;4.70;;;;;;;;;;5034629;28;20816;-66
2023/01/03 14:11:56;;;;;;;9.30;5.50;;;;;;;;;;5034406;28;20509;-66
2023/01/03 14:14:25;;;;;;;6.07;4.13;;;;;;;;;;5034598;28;20430;-65
2023/01/03 14:16:54;;;;;;;6.60;5.10;;;;;;;;;;5034127;28;20477;-66
2023/01/03 14:19:25;;;;;;;10.30;4.40;;;;;;;;;;5034940;28;20842;-66
2023/01/03 14:21:55;;;;;;;7.17;3.70;;;;;;;;;;5033816;28;20462;-66
2023/01/03 14:24:23;;;;;;;6.30;4.17;;;;;;;;;;5034120;28;20430;-66
2023/01/03 14:26:51;;;;;;;7.10;3.70;;;;;;;;;;5033694;28;21019;-66
2023/01/03 14:29:20;;;;;;;7.13;4.07;;;;;;;;;;5033894;28;20473;-66
2023/01/03 14:31:48;;;;;;;5.25;3.40;;;;;;;;;;5033954;28;20430;-65
2023/01/03 14:34:19;;;;;;;10.13;3.30;;;;;;;;;;5033024;28;20191;-66
2023/01/03 14:36:48;;;;;;;5.37;3.63;;;;;;;;;;5033507;28;20422;-66
2023/01/03 14:39:21;;;;;;;6.47;3.10;;;;;;;;;;5033664;28;20934;-65
2023/01/03 14:41:48;;;;;;;7.93;4.13;;;;;;;;;;5033504;28;20919;-65
2023/01/03 14:44:17;;;;;;;9.37;3.20;;;;;;;;;;5033388;28;20442;-65
2023/01/03 14:46:51;;;;;;;5.03;2.90;;;;;;;;;;5033355;28;20470;-66
2023/01/03 14:49:21;;;;;;;5.93;3.17;;;;;;;;;;5034008;28;20557;-66
2023/01/03 14:51:49;;;;;;;6.60;3.27;;;;;;;;;;5033350;28;20467;-66
2023/01/03 14:54:18;;;;;;;5.40;3.72;;;;;;;;;;5033570;28;20795;-66
2023/01/03 14:56:46;;;;;;;6.83;3.87;;;;;;;;;;5033389;28;20196;-66
2023/01/03 14:59:14;;;;;;;6.03;3.60;;;;;;;;;;5033539;28;20457;-66
2023/01/03 15:01:42;;;;;;;8.00;3.67;;;;;;;;;;5033462;28;20453;-65
2023/01/03 15:04:13;;;;;;;6.00;3.67;;;;;;;;;;5033452;28;20446;-65
2023/01/03 15:06:54;;;;;;;6.40;3.17;;;;;;;;;;5033471;28;20776;-66
2023/01/03 15:09:23;;;;;;;4.70;3.63;;;;;;;;;;5033693;28;20489;-67
2023/01/03 15:11:58;;;;;;;7.93;3.70;;;;;;;;;;5031758;28;20470;-70
2023/01/03 15:14:26;;;;;;;5.10;3.63;;;;;;;;;;5032938;28;20426;-67
2023/01/03 15:17:01;;;;;;;5.80;3.13;;;;;;;;;;5033077;28;20206;-66
2023/01/03 15:19:29;;;;;;;8.20;3.50;;;;;;;;;;5033243;28;20218;-66
2023/01/03 15:22:06;;;;;;;5.03;3.47;;;;;;;;;;5033151;28;20765;-66
2023/01/03 15:24:38;;;;;;;5.40;3.57;;;;;;;;;;5033294;28;20529;-67
2023/01/03 15:27:21;;;;;;;12.07;4.20;;;;;;;;;;5033077;28;20434;-67
2023/01/03 15:29:48;;;;;;;8.97;4.80;;;;;;;;;;5032740;28;20481;-67
2023/01/03 15:32:19;;;;;;;5.23;3.50;;;;;;;;;;5033246;28;20465;-67
2023/01/03 15:34:46;;;;;;;7.23;3.60;;;;;;;;;;5033381;28;20492;-66
2023/01/03 15:37:15;;;;;;;7.82;3.75;;;;;;;;;;5032741;28;20537;-66